sensor_id;sensor_type;location;lat;lon;timestamp;P1;durP1;ratioP1;P2;durP2;ratioP2
24357;SDS011;13668;52.154;5.580;2023-03-01T00:01:22;10.18;;;8.02;;
24357;SDS011;13668;52.154;5.580;2023-03-01T00:03:49;10.00;;;7.55;;
24357;SDS011;13668;52.154;5.580;2023-03-01T00:06:15;8.50;;;7.53;;
24357;SDS011;13668;52.154;5.580;2023-03-01T00:08:41;8.77;;;7.38;;
24357;SDS011;13668;52.154;5.580;2023-03-01T00:11:15;10.25;;;7.63;;
24357;SDS011;13668;52.154;5.580;2023-03-01T00:13:42;8.00;;;7.18;;
24357;SDS011;13668;52.154;5.580;2023-03-01T00:16:11;9.40;;;8.13;;
24357;SDS011;13668;52.154;5.580;2023-03-01T00:18:37;9.88;;;7.57;;
24357;SDS011;13668;52.154;5.580;2023-03-01T00:21:03;9.23;;;7.00;;
24357;SDS011;13668;52.154;5.580;2023-03-01T00:23:30;11.07;;;7.97;;
24357;SDS011;13668;52.154;5.580;2023-03-01T00:25:56;11.52;;;8.88;;
24357;SDS011;13668;52.154;5.580;2023-03-01T00:28:22;11.98;;;8.75;;
24357;SDS011;13668;52.154;5.580;2023-03-01T00:30:48;12.80;;;9.55;;
24357;SDS011;13668;52.154;5.580;2023-03-01T00:33:14;15.20;;;10.05;;
24357;SDS011;13668;52.154;5.580;2023-03-01T00:35:40;14.88;;;10.05;;
24357;SDS011;13668;52.154;5.580;2023-03-01T00:38:06;15.32;;;10.02;;
24357;SDS011;13668;52.154;5.580;2023-03-01T00:40:33;13.80;;;10.30;;
24357;SDS011;13668;52.154;5.580;2023-03-01T00:42:59;13.88;;;10.27;;
24357;SDS011;13668;52.154;5.580;2023-03-01T00:45:25;13.77;;;10.23;;
24357;SDS011;13668;52.154;5.580;2023-03-01T00:47:51;14.68;;;9.77;;
24357;SDS011;13668;52.154;5.580;2023-03-01T00:50:18;14.65;;;9.90;;
24357;SDS011;13668;52.154;5.580;2023-03-01T00:52:44;15.57;;;9.45;;
24357;SDS011;13668;52.154;5.580;2023-03-01T00:55:10;13.77;;;9.95;;
24357;SDS011;13668;52.154;5.580;2023-03-01T00:57:36;13.75;;;10.23;;
24357;SDS011;13668;52.154;5.580;2023-03-01T01:00:03;16.42;;;10.65;;
24357;SDS011;13668;52.154;5.580;2023-03-01T01:02:31;12.43;;;9.70;;
24357;SDS011;13668;52.154;5.580;2023-03-01T01:04:57;11.60;;;10.00;;
24357;SDS011;13668;52.154;5.580;2023-03-01T01:07:23;16.17;;;10.15;;
24357;SDS011;13668;52.154;5.580;2023-03-01T01:09:49;12.02;;;9.77;;
24357;SDS011;13668;52.154;5.580;2023-03-01T01:12:15;12.13;;;9.32;;
24357;SDS011;13668;52.154;5.580;2023-03-01T01:14:41;12.57;;;10.13;;
24357;SDS011;13668;52.154;5.580;2023-03-01T01:17:07;13.02;;;9.85;;
24357;SDS011;13668;52.154;5.580;2023-03-01T01:19:33;14.00;;;9.55;;
24357;SDS011;13668;52.154;5.580;2023-03-01T01:21:59;13.27;;;9.68;;
24357;SDS011;13668;52.154;5.580;2023-03-01T01:24:25;10.82;;;9.10;;
24357;SDS011;13668;52.154;5.580;2023-03-01T01:26:51;9.63;;;8.30;;
24357;SDS011;13668;52.154;5.580;2023-03-01T01:29:17;13.00;;;9.35;;
24357;SDS011;13668;52.154;5.580;2023-03-01T01:31:43;13.98;;;9.38;;
24357;SDS011;13668;52.154;5.580;2023-03-01T01:34:12;12.20;;;8.90;;
24357;SDS011;13668;52.154;5.580;2023-03-01T01:36:39;14.35;;;9.27;;
24357;SDS011;13668;52.154;5.580;2023-03-01T01:39:05;11.05;;;8.32;;
24357;SDS011;13668;52.154;5.580;2023-03-01T01:41:31;11.32;;;8.50;;
24357;SDS011;13668;52.154;5.580;2023-03-01T01:46:45;12.30;;;9.82;;
24357;SDS011;13668;52.154;5.580;2023-03-01T01:51:42;13.38;;;8.75;;
24357;SDS011;13668;52.154;5.580;2023-03-01T01:54:12;14.07;;;10.10;;
24357;SDS011;13668;52.154;5.580;2023-03-01T01:56:40;18.27;;;9.57;;
24357;SDS011;13668;52.154;5.580;2023-03-01T01:59:08;12.77;;;9.88;;
24357;SDS011;13668;52.154;5.580;2023-03-01T02:01:35;11.07;;;8.88;;
24357;SDS011;13668;52.154;5.580;2023-03-01T02:04:01;14.40;;;9.65;;
24357;SDS011;13668;52.154;5.580;2023-03-01T02:06:28;15.15;;;10.52;;
24357;SDS011;13668;52.154;5.580;2023-03-01T02:08:59;17.92;;;12.05;;
24357;SDS011;13668;52.154;5.580;2023-03-01T02:11:25;16.00;;;10.98;;
24357;SDS011;13668;52.154;5.580;2023-03-01T02:13:52;25.23;;;13.88;;
24357;SDS011;13668;52.154;5.580;2023-03-01T02:16:19;39.20;;;19.05;;
24357;SDS011;13668;52.154;5.580;2023-03-01T02:18:46;41.22;;;20.10;;
24357;SDS011;13668;52.154;5.580;2023-03-01T02:23:38;61.78;;;26.40;;
24357;SDS011;13668;52.154;5.580;2023-03-01T02:26:06;65.82;;;26.95;;
24357;SDS011;13668;52.154;5.580;2023-03-01T02:28:37;64.45;;;26.40;;
24357;SDS011;13668;52.154;5.580;2023-03-01T02:31:07;68.13;;;27.17;;
24357;SDS011;13668;52.154;5.580;2023-03-01T02:33:52;48.38;;;22.38;;
24357;SDS011;13668;52.154;5.580;2023-03-01T02:36:20;35.03;;;17.52;;
24357;SDS011;13668;52.154;5.580;2023-03-01T02:38:47;41.63;;;18.52;;
24357;SDS011;13668;52.154;5.580;2023-03-01T02:41:15;44.25;;;19.48;;
24357;SDS011;13668;52.154;5.580;2023-03-01T02:43:41;49.42;;;21.25;;
24357;SDS011;13668;52.154;5.580;2023-03-01T02:46:12;46.97;;;19.52;;
24357;SDS011;13668;52.154;5.580;2023-03-01T02:48:40;47.63;;;22.35;;
24357;SDS011;13668;52.154;5.580;2023-03-01T02:56:30;49.55;;;22.15;;
24357;SDS011;13668;52.154;5.580;2023-03-01T02:58:56;44.75;;;20.40;;
24357;SDS011;13668;52.154;5.580;2023-03-01T03:01:25;46.88;;;20.58;;
24357;SDS011;13668;52.154;5.580;2023-03-01T03:04:11;45.78;;;20.50;;
24357;SDS011;13668;52.154;5.580;2023-03-01T03:06:42;43.33;;;19.77;;
24357;SDS011;13668;52.154;5.580;2023-03-01T03:09:09;35.17;;;18.10;;
24357;SDS011;13668;52.154;5.580;2023-03-01T03:11:35;38.45;;;18.25;;
24357;SDS011;13668;52.154;5.580;2023-03-01T03:14:01;32.67;;;15.80;;
24357;SDS011;13668;52.154;5.580;2023-03-01T03:16:27;25.42;;;13.55;;
24357;SDS011;13668;52.154;5.580;2023-03-01T03:18:54;24.75;;;13.30;;
24357;SDS011;13668;52.154;5.580;2023-03-01T03:21:29;24.73;;;13.95;;
24357;SDS011;13668;52.154;5.580;2023-03-01T03:23:55;21.45;;;11.90;;
24357;SDS011;13668;52.154;5.580;2023-03-01T03:26:22;16.05;;;11.18;;
24357;SDS011;13668;52.154;5.580;2023-03-01T03:28:48;17.25;;;11.10;;
24357;SDS011;13668;52.154;5.580;2023-03-01T03:31:14;14.32;;;10.27;;
24357;SDS011;13668;52.154;5.580;2023-03-01T03:33:40;12.60;;;9.77;;
24357;SDS011;13668;52.154;5.580;2023-03-01T03:36:06;10.88;;;8.50;;
24357;SDS011;13668;52.154;5.580;2023-03-01T03:38:38;11.90;;;8.82;;
24357;SDS011;13668;52.154;5.580;2023-03-01T03:41:05;10.68;;;8.65;;
24357;SDS011;13668;52.154;5.580;2023-03-01T03:43:32;11.38;;;8.52;;
24357;SDS011;13668;52.154;5.580;2023-03-01T03:45:59;11.70;;;9.43;;
24357;SDS011;13668;52.154;5.580;2023-03-01T03:48:25;11.10;;;8.95;;
24357;SDS011;13668;52.154;5.580;2023-03-01T03:50:52;10.88;;;8.88;;
24357;SDS011;13668;52.154;5.580;2023-03-01T03:53:19;12.25;;;8.40;;
24357;SDS011;13668;52.154;5.580;2023-03-01T03:55:45;10.30;;;8.98;;
24357;SDS011;13668;52.154;5.580;2023-03-01T03:58:14;11.77;;;8.48;;
24357;SDS011;13668;52.154;5.580;2023-03-01T04:00:42;11.48;;;8.35;;
24357;SDS011;13668;52.154;5.580;2023-03-01T04:03:08;11.70;;;8.75;;
24357;SDS011;13668;52.154;5.580;2023-03-01T04:05:35;13.55;;;9.23;;
24357;SDS011;13668;52.154;5.580;2023-03-01T04:08:01;11.93;;;8.85;;
24357;SDS011;13668;52.154;5.580;2023-03-01T04:10:28;13.68;;;8.95;;
24357;SDS011;13668;52.154;5.580;2023-03-01T04:12:54;10.77;;;8.40;;
24357;SDS011;13668;52.154;5.580;2023-03-01T04:15:23;10.93;;;8.25;;
24357;SDS011;13668;52.154;5.580;2023-03-01T04:17:50;13.48;;;9.40;;
24357;SDS011;13668;52.154;5.580;2023-03-01T04:20:18;12.85;;;9.43;;
24357;SDS011;13668;52.154;5.580;2023-03-01T04:23:12;12.85;;;8.48;;
24357;SDS011;13668;52.154;5.580;2023-03-01T04:25:42;11.95;;;9.35;;
24357;SDS011;13668;52.154;5.580;2023-03-01T04:28:08;10.63;;;8.82;;
24357;SDS011;13668;52.154;5.580;2023-03-01T04:30:35;14.27;;;10.60;;
24357;SDS011;13668;52.154;5.580;2023-03-01T04:33:02;12.48;;;9.35;;
24357;SDS011;13668;52.154;5.580;2023-03-01T04:35:28;10.40;;;8.98;;
24357;SDS011;13668;52.154;5.580;2023-03-01T04:37:54;11.15;;;9.18;;
24357;SDS011;13668;52.154;5.580;2023-03-01T04:40:20;14.05;;;10.27;;
24357;SDS011;13668;52.154;5.580;2023-03-01T04:42:46;13.15;;;9.60;;
24357;SDS011;13668;52.154;5.580;2023-03-01T04:45:12;11.60;;;9.43;;
24357;SDS011;13668;52.154;5.580;2023-03-01T04:47:42;10.60;;;9.32;;
24357;SDS011;13668;52.154;5.580;2023-03-01T04:50:09;13.85;;;9.27;;
24357;SDS011;13668;52.154;5.580;2023-03-01T04:52:35;13.60;;;10.27;;
24357;SDS011;13668;52.154;5.580;2023-03-01T04:55:01;12.50;;;9.90;;
24357;SDS011;13668;52.154;5.580;2023-03-01T04:57:28;11.30;;;9.68;;
24357;SDS011;13668;52.154;5.580;2023-03-01T04:59:54;12.07;;;9.15;;
24357;SDS011;13668;52.154;5.580;2023-03-01T05:02:20;12.80;;;10.18;;
24357;SDS011;13668;52.154;5.580;2023-03-01T05:04:46;13.13;;;10.13;;
24357;SDS011;13668;52.154;5.580;2023-03-01T05:07:12;12.27;;;9.52;;
24357;SDS011;13668;52.154;5.580;2023-03-01T05:09:44;11.35;;;9.27;;
24357;SDS011;13668;52.154;5.580;2023-03-01T05:12:11;12.43;;;9.88;;
24357;SDS011;13668;52.154;5.580;2023-03-01T05:14:37;14.57;;;10.20;;
24357;SDS011;13668;52.154;5.580;2023-03-01T05:17:03;13.13;;;10.15;;
24357;SDS011;13668;52.154;5.580;2023-03-01T05:19:30;13.60;;;10.43;;
24357;SDS011;13668;52.154;5.580;2023-03-01T05:21:56;12.05;;;9.70;;
24357;SDS011;13668;52.154;5.580;2023-03-01T05:24:30;14.25;;;9.88;;
24357;SDS011;13668;52.154;5.580;2023-03-01T05:26:56;11.73;;;9.57;;
24357;SDS011;13668;52.154;5.580;2023-03-01T05:29:22;13.68;;;10.18;;
24357;SDS011;13668;52.154;5.580;2023-03-01T05:31:52;12.93;;;9.45;;
24357;SDS011;13668;52.154;5.580;2023-03-01T05:34:19;14.02;;;10.30;;
24357;SDS011;13668;52.154;5.580;2023-03-01T05:36:47;14.02;;;10.05;;
24357;SDS011;13668;52.154;5.580;2023-03-01T05:39:13;11.85;;;9.85;;
24357;SDS011;13668;52.154;5.580;2023-03-01T05:41:39;12.02;;;10.38;;
24357;SDS011;13668;52.154;5.580;2023-03-01T05:44:06;12.25;;;9.82;;
24357;SDS011;13668;52.154;5.580;2023-03-01T05:46:32;17.25;;;9.48;;
24357;SDS011;13668;52.154;5.580;2023-03-01T05:48:57;12.18;;;9.43;;
24357;SDS011;13668;52.154;5.580;2023-03-01T05:51:25;11.27;;;9.73;;
24357;SDS011;13668;52.154;5.580;2023-03-01T05:53:51;11.75;;;9.73;;
24357;SDS011;13668;52.154;5.580;2023-03-01T05:56:17;11.23;;;9.15;;
24357;SDS011;13668;52.154;5.580;2023-03-01T05:58:43;13.98;;;9.88;;
24357;SDS011;13668;52.154;5.580;2023-03-01T06:01:12;15.95;;;10.75;;
24357;SDS011;13668;52.154;5.580;2023-03-01T06:03:41;14.35;;;10.32;;
24357;SDS011;13668;52.154;5.580;2023-03-01T06:06:07;13.98;;;9.52;;
24357;SDS011;13668;52.154;5.580;2023-03-01T06:08:33;15.55;;;9.75;;
24357;SDS011;13668;52.154;5.580;2023-03-01T06:10:59;13.02;;;10.68;;
24357;SDS011;13668;52.154;5.580;2023-03-01T06:13:25;14.98;;;10.85;;
24357;SDS011;13668;52.154;5.580;2023-03-01T06:15:51;13.75;;;10.90;;
24357;SDS011;13668;52.154;5.580;2023-03-01T06:18:17;15.95;;;10.43;;
24357;SDS011;13668;52.154;5.580;2023-03-01T06:20:43;13.50;;;10.80;;
24357;SDS011;13668;52.154;5.580;2023-03-01T06:23:08;13.63;;;10.55;;
24357;SDS011;13668;52.154;5.580;2023-03-01T06:25:34;16.35;;;11.25;;
24357;SDS011;13668;52.154;5.580;2023-03-01T06:28:00;13.75;;;10.73;;
24357;SDS011;13668;52.154;5.580;2023-03-01T06:30:27;14.18;;;10.82;;
24357;SDS011;13668;52.154;5.580;2023-03-01T06:32:53;14.90;;;11.00;;
24357;SDS011;13668;52.154;5.580;2023-03-01T06:35:25;16.20;;;11.65;;
24357;SDS011;13668;52.154;5.580;2023-03-01T06:37:54;16.20;;;11.50;;
24357;SDS011;13668;52.154;5.580;2023-03-01T06:40:21;16.77;;;10.82;;
24357;SDS011;13668;52.154;5.580;2023-03-01T06:42:48;14.02;;;10.20;;
24357;SDS011;13668;52.154;5.580;2023-03-01T06:45:14;15.43;;;11.13;;
24357;SDS011;13668;52.154;5.580;2023-03-01T06:47:40;15.32;;;10.60;;
24357;SDS011;13668;52.154;5.580;2023-03-01T06:50:06;18.90;;;11.65;;
24357;SDS011;13668;52.154;5.580;2023-03-01T06:52:32;15.27;;;10.27;;
24357;SDS011;13668;52.154;5.580;2023-03-01T06:54:58;14.57;;;11.10;;
24357;SDS011;13668;52.154;5.580;2023-03-01T06:57:25;17.65;;;11.90;;
24357;SDS011;13668;52.154;5.580;2023-03-01T06:59:51;19.40;;;11.68;;
24357;SDS011;13668;52.154;5.580;2023-03-01T07:02:17;17.25;;;11.45;;
24357;SDS011;13668;52.154;5.580;2023-03-01T07:04:43;14.35;;;10.57;;
24357;SDS011;13668;52.154;5.580;2023-03-01T07:07:09;15.88;;;10.65;;
24357;SDS011;13668;52.154;5.580;2023-03-01T07:09:35;15.32;;;11.07;;
24357;SDS011;13668;52.154;5.580;2023-03-01T07:12:01;16.30;;;11.55;;
24357;SDS011;13668;52.154;5.580;2023-03-01T07:14:27;16.88;;;11.65;;
24357;SDS011;13668;52.154;5.580;2023-03-01T07:16:53;21.30;;;12.18;;
24357;SDS011;13668;52.154;5.580;2023-03-01T07:19:19;18.95;;;13.75;;
24357;SDS011;13668;52.154;5.580;2023-03-01T07:21:45;23.42;;;14.27;;
24357;SDS011;13668;52.154;5.580;2023-03-01T07:24:11;22.00;;;15.15;;
24357;SDS011;13668;52.154;5.580;2023-03-01T07:26:37;22.88;;;13.90;;
24357;SDS011;13668;52.154;5.580;2023-03-01T07:29:04;18.75;;;12.68;;
24357;SDS011;13668;52.154;5.580;2023-03-01T07:31:30;18.92;;;12.18;;
24357;SDS011;13668;52.154;5.580;2023-03-01T07:33:57;20.88;;;13.60;;
24357;SDS011;13668;52.154;5.580;2023-03-01T07:36:23;20.55;;;13.55;;
24357;SDS011;13668;52.154;5.580;2023-03-01T07:38:49;19.00;;;13.70;;
24357;SDS011;13668;52.154;5.580;2023-03-01T07:41:15;16.77;;;12.65;;
24357;SDS011;13668;52.154;5.580;2023-03-01T07:43:41;18.50;;;12.55;;
24357;SDS011;13668;52.154;5.580;2023-03-01T07:46:07;19.05;;;12.75;;
24357;SDS011;13668;52.154;5.580;2023-03-01T07:48:33;19.20;;;12.45;;
24357;SDS011;13668;52.154;5.580;2023-03-01T07:51:00;16.48;;;11.50;;
24357;SDS011;13668;52.154;5.580;2023-03-01T07:53:26;18.58;;;11.45;;
24357;SDS011;13668;52.154;5.580;2023-03-01T07:56:05;15.95;;;11.40;;
24357;SDS011;13668;52.154;5.580;2023-03-01T07:58:33;15.85;;;11.15;;
24357;SDS011;13668;52.154;5.580;2023-03-01T08:01:03;20.52;;;12.60;;
24357;SDS011;13668;52.154;5.580;2023-03-01T08:03:30;17.08;;;11.55;;
24357;SDS011;13668;52.154;5.580;2023-03-01T08:05:56;17.33;;;11.15;;
24357;SDS011;13668;52.154;5.580;2023-03-01T08:08:22;16.38;;;10.68;;
24357;SDS011;13668;52.154;5.580;2023-03-01T08:10:47;13.73;;;9.38;;
24357;SDS011;13668;52.154;5.580;2023-03-01T08:13:13;12.23;;;9.85;;
24357;SDS011;13668;52.154;5.580;2023-03-01T08:15:39;12.32;;;8.95;;
24357;SDS011;13668;52.154;5.580;2023-03-01T08:18:05;12.98;;;9.00;;
24357;SDS011;13668;52.154;5.580;2023-03-01T08:20:31;9.70;;;7.65;;
24357;SDS011;13668;52.154;5.580;2023-03-01T08:22:57;9.98;;;7.68;;
24357;SDS011;13668;52.154;5.580;2023-03-01T08:25:24;9.85;;;7.80;;
24357;SDS011;13668;52.154;5.580;2023-03-01T08:27:49;12.00;;;8.48;;
24357;SDS011;13668;52.154;5.580;2023-03-01T08:30:15;10.18;;;8.20;;
24357;SDS011;13668;52.154;5.580;2023-03-01T08:32:42;10.20;;;8.35;;
24357;SDS011;13668;52.154;5.580;2023-03-01T08:35:08;12.25;;;7.63;;
24357;SDS011;13668;52.154;5.580;2023-03-01T08:37:34;9.68;;;7.72;;
24357;SDS011;13668;52.154;5.580;2023-03-01T08:40:00;8.68;;;7.80;;
24357;SDS011;13668;52.154;5.580;2023-03-01T08:42:26;10.52;;;7.70;;
24357;SDS011;13668;52.154;5.580;2023-03-01T08:44:52;10.90;;;7.70;;
24357;SDS011;13668;52.154;5.580;2023-03-01T08:47:18;11.43;;;8.02;;
24357;SDS011;13668;52.154;5.580;2023-03-01T08:49:44;10.18;;;7.78;;
24357;SDS011;13668;52.154;5.580;2023-03-01T08:52:10;8.32;;;7.43;;
24357;SDS011;13668;52.154;5.580;2023-03-01T08:54:36;7.78;;;6.35;;
24357;SDS011;13668;52.154;5.580;2023-03-01T08:57:02;11.48;;;7.78;;
24357;SDS011;13668;52.154;5.580;2023-03-01T08:59:28;9.98;;;7.55;;
24357;SDS011;13668;52.154;5.580;2023-03-01T09:01:55;8.55;;;6.63;;
24357;SDS011;13668;52.154;5.580;2023-03-01T09:04:21;9.40;;;7.30;;
24357;SDS011;13668;52.154;5.580;2023-03-01T09:06:47;11.77;;;7.35;;
24357;SDS011;13668;52.154;5.580;2023-03-01T09:09:14;10.30;;;7.50;;
24357;SDS011;13668;52.154;5.580;2023-03-01T09:11:41;7.78;;;6.95;;
24357;SDS011;13668;52.154;5.580;2023-03-01T09:14:08;6.57;;;5.60;;
24357;SDS011;13668;52.154;5.580;2023-03-01T09:16:34;9.63;;;7.13;;
24357;SDS011;13668;52.154;5.580;2023-03-01T09:19:01;9.10;;;6.20;;
24357;SDS011;13668;52.154;5.580;2023-03-01T09:21:27;5.75;;;5.13;;
24357;SDS011;13668;52.154;5.580;2023-03-01T09:23:55;6.20;;;5.60;;
24357;SDS011;13668;52.154;5.580;2023-03-01T09:26:21;6.43;;;5.72;;
24357;SDS011;13668;52.154;5.580;2023-03-01T09:28:51;5.78;;;5.22;;
24357;SDS011;13668;52.154;5.580;2023-03-01T09:31:18;5.70;;;5.10;;
24357;SDS011;13668;52.154;5.580;2023-03-01T09:33:48;5.47;;;4.85;;
24357;SDS011;13668;52.154;5.580;2023-03-01T09:36:16;6.45;;;5.53;;
24357;SDS011;13668;52.154;5.580;2023-03-01T09:38:43;6.65;;;4.97;;
24357;SDS011;13668;52.154;5.580;2023-03-01T09:43:51;6.25;;;5.10;;
24357;SDS011;13668;52.154;5.580;2023-03-01T09:46:19;5.03;;;4.65;;
24357;SDS011;13668;52.154;5.580;2023-03-01T09:48:48;5.32;;;4.47;;
24357;SDS011;13668;52.154;5.580;2023-03-01T09:51:21;4.50;;;4.13;;
24357;SDS011;13668;52.154;5.580;2023-03-01T09:53:49;5.97;;;4.70;;
24357;SDS011;13668;52.154;5.580;2023-03-01T09:56:22;6.28;;;4.65;;
24357;SDS011;13668;52.154;5.580;2023-03-01T10:09:35;4.25;;;3.03;;
24357;SDS011;13668;52.154;5.580;2023-03-01T10:12:02;3.65;;;2.97;;
24357;SDS011;13668;52.154;5.580;2023-03-01T10:14:32;3.25;;;2.95;;
24357;SDS011;13668;52.154;5.580;2023-03-01T10:19:46;3.67;;;2.92;;
24357;SDS011;13668;52.154;5.580;2023-03-01T10:24:41;2.97;;;2.78;;
24357;SDS011;13668;52.154;5.580;2023-03-01T10:27:21;3.33;;;2.95;;
24357;SDS011;13668;52.154;5.580;2023-03-01T10:32:14;3.22;;;2.92;;
24357;SDS011;13668;52.154;5.580;2023-03-01T10:34:40;3.42;;;2.67;;
24357;SDS011;13668;52.154;5.580;2023-03-01T10:37:13;4.40;;;3.22;;
24357;SDS011;13668;52.154;5.580;2023-03-01T10:40:00;5.60;;;3.50;;
24357;SDS011;13668;52.154;5.580;2023-03-01T10:42:34;4.15;;;3.28;;
24357;SDS011;13668;52.154;5.580;2023-03-01T10:45:15;4.03;;;3.60;;
24357;SDS011;13668;52.154;5.580;2023-03-01T10:47:41;4.38;;;3.00;;
24357;SDS011;13668;52.154;5.580;2023-03-01T10:50:20;4.03;;;3.63;;
24357;SDS011;13668;52.154;5.580;2023-03-01T10:53:05;3.63;;;3.30;;
24357;SDS011;13668;52.154;5.580;2023-03-01T10:55:39;3.60;;;2.95;;
24357;SDS011;13668;52.154;5.580;2023-03-01T11:00:34;4.78;;;3.10;;
24357;SDS011;13668;52.154;5.580;2023-03-01T11:03:11;5.28;;;3.47;;
24357;SDS011;13668;52.154;5.580;2023-03-01T11:05:49;3.72;;;2.97;;
24357;SDS011;13668;52.154;5.580;2023-03-01T11:08:25;4.55;;;3.60;;
24357;SDS011;13668;52.154;5.580;2023-03-01T11:11:02;4.03;;;3.03;;
24357;SDS011;13668;52.154;5.580;2023-03-01T11:13:29;6.43;;;3.85;;
24357;SDS011;13668;52.154;5.580;2023-03-01T11:15:58;4.90;;;3.90;;
24357;SDS011;13668;52.154;5.580;2023-03-01T11:18:25;4.53;;;3.72;;
24357;SDS011;13668;52.154;5.580;2023-03-01T11:20:52;3.90;;;3.28;;
24357;SDS011;13668;52.154;5.580;2023-03-01T11:23:18;5.18;;;3.30;;
24357;SDS011;13668;52.154;5.580;2023-03-01T11:25:48;5.47;;;3.90;;
24357;SDS011;13668;52.154;5.580;2023-03-01T11:28:16;4.45;;;3.25;;
24357;SDS011;13668;52.154;5.580;2023-03-01T11:33:20;5.70;;;3.72;;
24357;SDS011;13668;52.154;5.580;2023-03-01T11:35:57;5.13;;;3.97;;
24357;SDS011;13668;52.154;5.580;2023-03-01T11:38:26;4.15;;;3.75;;
24357;SDS011;13668;52.154;5.580;2023-03-01T11:41:12;5.47;;;3.70;;
24357;SDS011;13668;52.154;5.580;2023-03-01T11:46:24;4.18;;;3.28;;
24357;SDS011;13668;52.154;5.580;2023-03-01T11:51:25;4.28;;;3.10;;
24357;SDS011;13668;52.154;5.580;2023-03-01T11:54:17;3.38;;;3.08;;
24357;SDS011;13668;52.154;5.580;2023-03-01T11:57:07;7.63;;;3.58;;
24357;SDS011;13668;52.154;5.580;2023-03-01T11:59:43;4.57;;;3.33;;
24357;SDS011;13668;52.154;5.580;2023-03-01T12:02:16;4.55;;;3.53;;
24357;SDS011;13668;52.154;5.580;2023-03-01T12:07:24;4.22;;;3.33;;
24357;SDS011;13668;52.154;5.580;2023-03-01T12:20:45;5.07;;;3.67;;
24357;SDS011;13668;52.154;5.580;2023-03-01T12:25:41;4.13;;;3.22;;
24357;SDS011;13668;52.154;5.580;2023-03-01T12:28:16;3.65;;;2.88;;
24357;SDS011;13668;52.154;5.580;2023-03-01T12:38:42;5.18;;;3.95;;
24357;SDS011;13668;52.154;5.580;2023-03-01T12:43:57;4.05;;;3.47;;
24357;SDS011;13668;52.154;5.580;2023-03-01T12:46:27;4.15;;;3.40;;
24357;SDS011;13668;52.154;5.580;2023-03-01T12:48:58;4.78;;;3.70;;
24357;SDS011;13668;52.154;5.580;2023-03-01T12:51:26;4.70;;;3.50;;
24357;SDS011;13668;52.154;5.580;2023-03-01T12:53:53;5.50;;;3.60;;
24357;SDS011;13668;52.154;5.580;2023-03-01T12:56:24;5.07;;;3.75;;
24357;SDS011;13668;52.154;5.580;2023-03-01T13:11:42;4.25;;;3.85;;
24357;SDS011;13668;52.154;5.580;2023-03-01T13:16:51;4.07;;;3.60;;
24357;SDS011;13668;52.154;5.580;2023-03-01T13:21:43;6.40;;;4.07;;
24357;SDS011;13668;52.154;5.580;2023-03-01T13:32:21;5.43;;;3.45;;
24357;SDS011;13668;52.154;5.580;2023-03-01T13:34:48;3.83;;;3.35;;
24357;SDS011;13668;52.154;5.580;2023-03-01T13:37:18;5.57;;;3.58;;
24357;SDS011;13668;52.154;5.580;2023-03-01T13:39:45;5.20;;;3.70;;
24357;SDS011;13668;52.154;5.580;2023-03-01T13:44:56;4.75;;;3.35;;
24357;SDS011;13668;52.154;5.580;2023-03-01T13:47:22;4.30;;;3.50;;
24357;SDS011;13668;52.154;5.580;2023-03-01T13:49:56;5.63;;;3.13;;
24357;SDS011;13668;52.154;5.580;2023-03-01T13:54:51;4.18;;;3.70;;
24357;SDS011;13668;52.154;5.580;2023-03-01T13:57:20;4.63;;;3.40;;
24357;SDS011;13668;52.154;5.580;2023-03-01T13:59:48;4.68;;;3.55;;
24357;SDS011;13668;52.154;5.580;2023-03-01T14:02:14;4.80;;;3.45;;
24357;SDS011;13668;52.154;5.580;2023-03-01T14:04:40;5.03;;;3.88;;
24357;SDS011;13668;52.154;5.580;2023-03-01T14:09:37;4.80;;;3.20;;
24357;SDS011;13668;52.154;5.580;2023-03-01T14:17:42;7.60;;;3.65;;
24357;SDS011;13668;52.154;5.580;2023-03-01T14:20:12;4.45;;;3.70;;
24357;SDS011;13668;52.154;5.580;2023-03-01T14:22:40;5.53;;;4.00;;
24357;SDS011;13668;52.154;5.580;2023-03-01T14:27:42;4.93;;;3.55;;
24357;SDS011;13668;52.154;5.580;2023-03-01T14:30:17;4.43;;;3.85;;
24357;SDS011;13668;52.154;5.580;2023-03-01T14:32:51;4.78;;;4.30;;
24357;SDS011;13668;52.154;5.580;2023-03-01T14:35:19;5.07;;;4.35;;
24357;SDS011;13668;52.154;5.580;2023-03-01T14:37:46;4.18;;;3.60;;
24357;SDS011;13668;52.154;5.580;2023-03-01T14:40:20;3.83;;;3.42;;
24357;SDS011;13668;52.154;5.580;2023-03-01T14:42:46;4.85;;;3.55;;
24357;SDS011;13668;52.154;5.580;2023-03-01T14:45:12;5.32;;;3.72;;
24357;SDS011;13668;52.154;5.580;2023-03-01T14:47:39;4.68;;;3.80;;
24357;SDS011;13668;52.154;5.580;2023-03-01T14:52:33;4.15;;;3.72;;
24357;SDS011;13668;52.154;5.580;2023-03-01T14:54:59;6.97;;;4.20;;
24357;SDS011;13668;52.154;5.580;2023-03-01T14:57:27;5.78;;;4.05;;
24357;SDS011;13668;52.154;5.580;2023-03-01T14:59:54;4.82;;;4.07;;
24357;SDS011;13668;52.154;5.580;2023-03-01T15:02:22;5.50;;;3.80;;
24357;SDS011;13668;52.154;5.580;2023-03-01T15:04:49;5.80;;;3.95;;
24357;SDS011;13668;52.154;5.580;2023-03-01T15:07:16;4.18;;;3.78;;
24357;SDS011;13668;52.154;5.580;2023-03-01T15:09:43;5.97;;;4.40;;
24357;SDS011;13668;52.154;5.580;2023-03-01T15:14:51;6.43;;;4.05;;
24357;SDS011;13668;52.154;5.580;2023-03-01T15:19:47;5.32;;;3.55;;
24357;SDS011;13668;52.154;5.580;2023-03-01T15:22:14;4.60;;;3.72;;
24357;SDS011;13668;52.154;5.580;2023-03-01T15:24:41;6.13;;;3.42;;
24357;SDS011;13668;52.154;5.580;2023-03-01T15:27:14;5.85;;;3.92;;
24357;SDS011;13668;52.154;5.580;2023-03-01T15:29:41;5.97;;;4.45;;
24357;SDS011;13668;52.154;5.580;2023-03-01T15:32:25;4.45;;;3.67;;
24357;SDS011;13668;52.154;5.580;2023-03-01T15:34:51;5.25;;;4.10;;
24357;SDS011;13668;52.154;5.580;2023-03-01T15:40:02;5.88;;;4.18;;
24357;SDS011;13668;52.154;5.580;2023-03-01T15:45:07;5.15;;;4.30;;
24357;SDS011;13668;52.154;5.580;2023-03-01T15:47:33;5.57;;;4.15;;
24357;SDS011;13668;52.154;5.580;2023-03-01T15:50:00;5.13;;;3.80;;
24357;SDS011;13668;52.154;5.580;2023-03-01T15:52:44;4.72;;;3.33;;
24357;SDS011;13668;52.154;5.580;2023-03-01T15:57:42;7.75;;;4.05;;
24357;SDS011;13668;52.154;5.580;2023-03-01T16:00:09;5.07;;;4.03;;
24357;SDS011;13668;52.154;5.580;2023-03-01T16:02:39;7.60;;;3.97;;
24357;SDS011;13668;52.154;5.580;2023-03-01T16:05:05;7.28;;;4.55;;
24357;SDS011;13668;52.154;5.580;2023-03-01T16:07:31;6.47;;;4.13;;
24357;SDS011;13668;52.154;5.580;2023-03-01T16:09:57;4.57;;;4.13;;
24357;SDS011;13668;52.154;5.580;2023-03-01T16:12:23;7.13;;;4.25;;
24357;SDS011;13668;52.154;5.580;2023-03-01T16:14:49;5.00;;;4.50;;
24357;SDS011;13668;52.154;5.580;2023-03-01T16:17:17;6.63;;;4.68;;
24357;SDS011;13668;52.154;5.580;2023-03-01T16:19:44;4.75;;;4.20;;
24357;SDS011;13668;52.154;5.580;2023-03-01T16:22:10;8.60;;;5.03;;
24357;SDS011;13668;52.154;5.580;2023-03-01T16:24:36;6.63;;;4.95;;
24357;SDS011;13668;52.154;5.580;2023-03-01T16:27:02;7.93;;;4.53;;
24357;SDS011;13668;52.154;5.580;2023-03-01T16:29:28;7.10;;;4.30;;
24357;SDS011;13668;52.154;5.580;2023-03-01T16:31:54;6.30;;;4.82;;
24357;SDS011;13668;52.154;5.580;2023-03-01T16:34:20;8.93;;;4.75;;
24357;SDS011;13668;52.154;5.580;2023-03-01T16:36:47;5.82;;;5.20;;
24357;SDS011;13668;52.154;5.580;2023-03-01T16:39:13;6.95;;;5.10;;
24357;SDS011;13668;52.154;5.580;2023-03-01T16:41:39;6.93;;;4.80;;
24357;SDS011;13668;52.154;5.580;2023-03-01T16:44:05;6.68;;;4.32;;
24357;SDS011;13668;52.154;5.580;2023-03-01T16:46:31;7.07;;;5.35;;
24357;SDS011;13668;52.154;5.580;2023-03-01T16:48:57;5.10;;;4.32;;